createdAt,value
2018-12-26T00:02:44.301Z,3.30
2018-12-26T00:05:47.111Z,3.63
2018-12-26T00:08:49.954Z,3.67
2018-12-26T00:11:52.665Z,3.40
2018-12-26T00:14:55.364Z,3.60
2018-12-26T00:17:58.130Z,2.90
2018-12-26T00:21:00.780Z,4.57
2018-12-26T00:24:03.592Z,3.83
2018-12-26T00:27:06.298Z,4.33
2018-12-26T00:30:09.059Z,3.30
2018-12-26T00:33:11.766Z,3.30
2018-12-26T00:36:14.451Z,3.10
2018-12-26T00:39:17.064Z,4.67
2018-12-26T00:42:19.655Z,3.37
2018-12-26T00:45:23.416Z,4.63
2018-12-26T00:48:27.224Z,3.33
2018-12-26T00:51:29.885Z,3.70
2018-12-26T00:54:32.585Z,2.40
2018-12-26T00:57:35.109Z,3.30
2018-12-26T01:00:37.807Z,3.50
2018-12-26T01:03:40.488Z,3.33
2018-12-26T01:06:43.246Z,3.50
2018-12-26T01:09:45.893Z,3.13
2018-12-26T01:12:48.595Z,3.87
2018-12-26T01:15:51.278Z,2.60
2018-12-26T01:18:53.994Z,4.80
2018-12-26T01:21:56.527Z,4.47
2018-12-26T01:24:59.218Z,3.17
2018-12-26T01:28:01.761Z,3.63
2018-12-26T01:31:04.429Z,3.77
2018-12-26T01:34:07.113Z,3.83
2018-12-26T01:37:09.696Z,4.10
2018-12-26T01:40:12.358Z,3.17
2018-12-26T01:43:15.077Z,3.60
2018-12-26T01:46:17.659Z,3.33
2018-12-26T01:49:20.316Z,3.33
2018-12-26T01:52:23.036Z,2.77
2018-12-26T01:55:26.948Z,3.13
2018-12-26T01:58:29.550Z,3.53
2018-12-26T02:01:32.311Z,3.50
2018-12-26T02:04:35.106Z,3.00
2018-12-26T02:07:37.887Z,3.40
2018-12-26T02:10:40.738Z,3.13
2018-12-26T02:13:43.311Z,3.60
2018-12-26T02:16:45.992Z,4.07
2018-12-26T02:19:48.607Z,3.90
2018-12-26T02:22:51.321Z,2.67
2018-12-26T02:25:54.076Z,4.40
2018-12-26T02:28:56.831Z,3.67
2018-12-26T02:31:59.585Z,3.70
2018-12-26T02:35:02.613Z,3.50
2018-12-26T02:38:05.492Z,2.80
2018-12-26T02:41:08.423Z,3.73
2018-12-26T02:44:11.203Z,3.50
2018-12-26T02:47:14.054Z,2.97
2018-12-26T02:50:17.075Z,2.67
2018-12-26T02:53:19.751Z,4.40
2018-12-26T02:56:22.548Z,3.60
2018-12-26T02:59:25.367Z,4.37
2018-12-26T03:02:28.110Z,2.87
2018-12-26T03:05:30.788Z,2.80
2018-12-26T03:08:33.476Z,2.97
2018-12-26T03:11:36.061Z,2.80
2018-12-26T03:14:38.847Z,2.53
2018-12-26T03:17:41.431Z,4.77
2018-12-26T03:20:44.137Z,3.03
2018-12-26T03:23:46.830Z,2.93
2018-12-26T03:26:56.202Z,2.80
2018-12-26T03:29:54.332Z,2.70
2018-12-26T03:32:57.015Z,2.03
2018-12-26T03:35:59.685Z,2.80
2018-12-26T03:39:03.708Z,2.67
2018-12-26T03:42:06.376Z,2.33
2018-12-26T03:45:09.028Z,2.97
2018-12-26T03:48:11.978Z,2.77
2018-12-26T03:51:14.734Z,2.50
2018-12-26T03:54:19.150Z,2.43
2018-12-26T03:57:21.791Z,2.57
2018-12-26T04:00:24.435Z,3.13
2018-12-26T04:03:28.249Z,1.90
2018-12-26T04:06:30.930Z,2.70
2018-12-26T04:09:33.639Z,2.13
2018-12-26T04:12:39.292Z,3.13
2018-12-26T04:15:42.033Z,2.17
2018-12-26T04:18:44.773Z,3.33
2018-12-26T04:21:47.589Z,3.07
2018-12-26T04:24:50.277Z,2.87
2018-12-26T04:27:52.976Z,3.00
2018-12-26T04:30:55.542Z,2.07
2018-12-26T04:33:58.406Z,3.13
2018-12-26T04:37:01.038Z,2.80
2018-12-26T04:40:04.891Z,2.50
2018-12-26T04:43:07.608Z,3.77
2018-12-26T04:46:10.282Z,3.23
2018-12-26T04:49:13.047Z,2.27
2018-12-26T04:52:15.784Z,2.83
2018-12-26T04:55:18.443Z,2.77
2018-12-26T04:58:21.083Z,2.40
2018-12-26T05:01:24.034Z,2.37
2018-12-26T05:04:26.729Z,3.20
2018-12-26T05:07:29.391Z,2.53
2018-12-26T05:10:32.810Z,2.37
2018-12-26T05:13:35.402Z,3.20
2018-12-26T05:16:38.036Z,3.07
2018-12-26T05:19:40.843Z,2.17
2018-12-26T05:22:43.610Z,3.23
2018-12-26T05:25:46.272Z,5.20
2018-12-26T05:28:49.016Z,2.83
2018-12-26T05:31:51.713Z,3.47
2018-12-26T05:34:54.382Z,3.23
2018-12-26T05:37:57.146Z,2.60
2018-12-26T05:40:59.789Z,3.73
2018-12-26T05:44:02.465Z,2.33
2018-12-26T05:47:05.098Z,2.23
2018-12-26T05:50:07.869Z,2.50
2018-12-26T05:53:10.517Z,2.87
2018-12-26T05:56:13.205Z,2.40
2018-12-26T05:59:15.925Z,3.10
2018-12-26T06:02:18.540Z,4.47
2018-12-26T06:05:21.221Z,3.17
2018-12-26T06:08:23.908Z,2.30
2018-12-26T06:11:26.567Z,2.33
2018-12-26T06:14:29.286Z,2.40
2018-12-26T06:17:31.934Z,2.33
2018-12-26T06:20:34.717Z,2.27
2018-12-26T06:23:37.355Z,2.10
2018-12-26T06:26:40.077Z,2.57
2018-12-26T06:29:42.771Z,2.37
2018-12-26T06:32:46.907Z,2.70
2018-12-26T06:35:49.597Z,2.00
2018-12-26T06:38:52.378Z,2.87
2018-12-26T06:41:55.283Z,2.27
2018-12-26T06:44:58.016Z,2.43
2018-12-26T06:48:00.783Z,2.87
2018-12-26T06:51:03.524Z,3.13
2018-12-26T06:54:06.212Z,3.73
2018-12-26T06:57:08.762Z,2.83
2018-12-26T07:00:11.454Z,3.73
2018-12-26T07:03:14.009Z,4.20
2018-12-26T07:06:16.763Z,3.60
2018-12-26T07:09:19.423Z,3.50
2018-12-26T07:12:22.086Z,2.90
2018-12-26T07:15:25.036Z,3.67
2018-12-26T07:18:27.703Z,3.03
2018-12-26T07:21:30.400Z,3.40
2018-12-26T07:24:33.024Z,3.90
2018-12-26T07:27:35.640Z,2.97
2018-12-26T07:30:38.322Z,3.43
2018-12-26T07:33:40.895Z,3.57
2018-12-26T07:36:43.787Z,2.30
2018-12-26T07:39:46.522Z,2.70
2018-12-26T07:42:49.199Z,2.30
2018-12-26T07:45:51.930Z,3.80
2018-12-26T07:48:54.675Z,2.20
2018-12-26T07:51:57.443Z,3.50
2018-12-26T07:55:00.263Z,2.60
2018-12-26T07:58:03.024Z,2.23
2018-12-26T08:01:05.757Z,2.73
2018-12-26T08:04:08.305Z,2.40
2018-12-26T08:07:11.061Z,2.67
2018-12-26T08:10:13.623Z,2.53
2018-12-26T08:13:16.430Z,3.70
2018-12-26T08:16:19.058Z,2.80
2018-12-26T08:19:21.956Z,2.87
2018-12-26T08:22:24.605Z,3.10
2018-12-26T08:25:27.315Z,2.67
2018-12-26T08:28:31.233Z,2.97
2018-12-26T08:31:34.067Z,2.53
2018-12-26T08:34:37.570Z,2.60
2018-12-26T08:37:40.456Z,2.87
2018-12-26T08:40:43.318Z,2.53
2018-12-26T08:43:46.006Z,2.63
2018-12-26T08:46:49.762Z,2.67
2018-12-26T08:49:52.516Z,2.43
2018-12-26T08:52:55.202Z,2.60
2018-12-26T08:55:57.870Z,2.50
2018-12-26T08:59:00.589Z,2.23
2018-12-26T09:02:03.231Z,1.97
2018-12-26T09:05:06.031Z,4.00
2018-12-26T09:08:08.810Z,2.30
2018-12-26T09:11:11.461Z,2.23
2018-12-26T09:14:14.113Z,1.47
2018-12-26T09:17:16.767Z,1.77
2018-12-26T09:20:19.559Z,3.23
2018-12-26T09:23:22.275Z,2.33
2018-12-26T09:26:25.117Z,2.40
2018-12-26T09:29:27.771Z,2.17
2018-12-26T09:32:30.506Z,2.23
2018-12-26T09:35:33.183Z,2.53
2018-12-26T09:38:35.971Z,3.03
2018-12-26T09:41:38.812Z,2.23
2018-12-26T09:44:43.511Z,2.27
2018-12-26T09:47:46.931Z,1.97
2018-12-26T09:50:49.939Z,2.60
2018-12-26T09:53:52.801Z,2.30
2018-12-26T09:56:56.744Z,2.57
2018-12-26T09:59:59.782Z,1.60
2018-12-26T10:03:05.732Z,1.97
2018-12-26T10:06:08.614Z,3.20
2018-12-26T10:09:11.164Z,2.37
2018-12-26T15:08:40.341Z,5.93
2018-12-26T15:11:45.119Z,6.40
2018-12-26T15:14:50.000Z,6.93
2018-12-26T15:17:54.794Z,6.77
2018-12-26T15:20:57.456Z,6.43
2018-12-26T15:24:02.182Z,7.17
2018-12-26T15:27:04.959Z,7.57
2018-12-26T15:30:08.457Z,7.70
2018-12-26T15:33:13.514Z,6.70
2018-12-26T15:36:17.835Z,7.67
2018-12-26T15:39:21.201Z,6.73
2018-12-26T15:42:25.123Z,6.77
2018-12-26T15:45:30.353Z,6.53
2018-12-26T15:48:34.393Z,7.10
2018-12-26T15:51:37.165Z,6.80
2018-12-26T15:54:40.049Z,6.93
2018-12-26T15:57:42.689Z,6.17
2018-12-26T16:00:45.356Z,6.17
2018-12-26T16:03:48.095Z,6.67
2018-12-26T16:06:51.777Z,6.40
2018-12-26T16:09:54.565Z,6.53
2018-12-26T16:12:57.243Z,6.27
2018-12-26T16:15:59.998Z,6.27
2018-12-26T16:19:02.657Z,7.63
2018-12-26T16:22:05.552Z,7.37
2018-12-26T16:25:08.741Z,8.97
2018-12-26T16:28:11.508Z,9.10
2018-12-26T16:31:14.280Z,11.17
2018-12-26T16:34:17.174Z,14.87
2018-12-26T16:37:22.425Z,13.33
2018-12-26T16:40:26.626Z,12.40
2018-12-26T16:43:32.564Z,7.10
2018-12-26T16:46:38.200Z,7.20
2018-12-26T16:49:41.617Z,6.00
2018-12-26T16:52:44.859Z,6.20
2018-12-26T16:55:47.889Z,7.53
2018-12-26T16:58:50.999Z,6.00
2018-12-26T17:02:01.924Z,5.00
2018-12-26T17:05:05.966Z,6.83
2018-12-26T17:08:08.799Z,4.63
2018-12-26T17:11:11.883Z,4.87
2018-12-26T17:14:14.681Z,4.87
2018-12-26T17:17:22.890Z,4.00
2018-12-26T17:20:27.042Z,4.80
2018-12-26T17:23:31.030Z,5.37
2018-12-26T17:26:39.505Z,5.23
2018-12-26T17:29:46.369Z,4.50
2018-12-26T17:32:49.580Z,5.93
2018-12-26T17:35:52.265Z,5.70
2018-12-26T17:38:55.197Z,6.50
2018-12-26T17:42:00.184Z,13.27
2018-12-26T17:45:03.546Z,14.50
2018-12-26T17:48:06.095Z,17.13
2018-12-26T17:51:14.528Z,25.70
2018-12-26T17:54:47.045Z,21.00
2018-12-26T17:57:52.008Z,18.27
2018-12-26T18:01:25.100Z,17.37
2018-12-26T18:04:29.366Z,29.40
2018-12-26T18:07:31.974Z,23.63
2018-12-26T18:10:34.578Z,31.73
2018-12-26T18:13:37.208Z,17.80
2018-12-26T18:16:39.725Z,28.53
2018-12-26T18:19:42.368Z,27.80
2018-12-26T18:22:45.357Z,13.70
2018-12-26T18:25:50.844Z,30.97
2018-12-26T18:28:53.510Z,36.30
2018-12-26T18:31:56.143Z,32.87
2018-12-26T18:35:01.516Z,19.30
2018-12-26T18:38:06.649Z,14.30
2018-12-26T18:41:09.295Z,25.87
2018-12-26T18:44:12.122Z,15.80
2018-12-26T18:47:15.009Z,17.77
2018-12-26T18:50:17.496Z,29.20
2018-12-26T18:53:21.175Z,24.73
2018-12-26T18:56:24.980Z,36.73
2018-12-26T18:59:27.443Z,17.53
2018-12-26T19:02:30.099Z,27.83
2018-12-26T19:05:32.814Z,28.03
2018-12-26T19:08:35.709Z,28.77
2018-12-26T19:11:39.459Z,24.80
2018-12-26T19:14:42.294Z,31.93
2018-12-26T19:17:45.290Z,33.50
2018-12-26T19:20:49.490Z,32.47
2018-12-26T19:23:54.410Z,18.67
2018-12-26T19:26:57.080Z,29.93
2018-12-26T19:29:59.743Z,24.07
2018-12-26T19:33:02.457Z,35.30
2018-12-26T19:36:06.213Z,27.63
2018-12-26T19:39:08.825Z,33.47
2018-12-26T19:42:11.456Z,18.33
2018-12-26T19:45:14.086Z,22.90
2018-12-26T19:48:16.726Z,34.83
2018-12-26T19:51:19.436Z,20.87
2018-12-26T19:54:23.330Z,25.53
2018-12-26T19:57:27.234Z,13.60
2018-12-26T20:00:29.919Z,16.63
2018-12-26T20:03:32.720Z,11.87
2018-12-26T20:06:36.784Z,13.07
2018-12-26T20:09:39.262Z,12.73
2018-12-26T20:12:41.826Z,12.73
2018-12-26T20:15:44.409Z,10.57
2018-12-26T20:18:47.378Z,14.57
2018-12-26T20:21:49.897Z,7.97
2018-12-26T20:24:52.596Z,17.00
2018-12-26T20:27:55.193Z,19.10
2018-12-26T20:31:05.531Z,21.50
2018-12-26T20:34:09.249Z,17.53
2018-12-26T20:37:11.927Z,10.63
2018-12-26T20:40:14.783Z,15.10
2018-12-26T20:43:17.458Z,33.97
2018-12-26T20:46:21.001Z,16.53
2018-12-26T20:49:23.676Z,25.43
2018-12-26T20:52:26.434Z,16.47
2018-12-26T20:55:29.128Z,28.43
2018-12-26T20:58:31.853Z,28.63
2018-12-26T21:01:34.583Z,17.33
2018-12-26T21:04:37.285Z,27.67
2018-12-26T21:07:40.041Z,37.13
2018-12-26T21:10:44.698Z,26.13
2018-12-26T21:13:47.295Z,29.83
2018-12-26T21:16:55.000Z,19.43
2018-12-26T21:19:54.475Z,30.73
2018-12-26T21:22:57.269Z,22.93
2018-12-26T21:25:59.960Z,34.47
2018-12-26T21:29:03.353Z,23.90
2018-12-26T21:32:13.912Z,31.33
2018-12-26T21:35:10.670Z,19.63
2018-12-26T21:38:14.524Z,26.90
2018-12-26T21:41:18.650Z,24.07
2018-12-26T21:44:21.211Z,30.33
2018-12-26T21:47:23.953Z,24.23
2018-12-26T21:50:26.656Z,32.90
2018-12-26T21:53:29.316Z,25.30
2018-12-26T21:56:31.849Z,28.43
2018-12-26T21:59:34.687Z,24.43
2018-12-26T22:02:37.302Z,24.60
2018-12-26T22:05:39.970Z,32.73
2018-12-26T22:08:42.549Z,17.33
2018-12-26T22:11:45.194Z,26.73
2018-12-26T22:14:49.050Z,18.70
2018-12-26T22:17:51.610Z,28.70
2018-12-26T22:20:55.238Z,25.13
2018-12-26T22:23:57.840Z,24.70
2018-12-26T22:27:00.468Z,11.60
2018-12-26T22:30:03.454Z,11.83
2018-12-26T22:33:06.164Z,13.90
2018-12-26T22:36:11.564Z,17.77
2018-12-26T22:39:14.088Z,20.93
2018-12-26T22:42:17.004Z,10.53
2018-12-26T22:45:19.741Z,16.73
2018-12-26T22:48:22.451Z,23.90
2018-12-26T22:51:25.548Z,11.80
2018-12-26T22:54:28.271Z,22.03
2018-12-26T22:57:30.902Z,14.77
2018-12-26T23:00:44.024Z,27.83
2018-12-26T23:03:46.624Z,11.53
2018-12-26T23:06:49.374Z,20.10
2018-12-26T23:09:52.060Z,24.77
2018-12-26T23:12:54.697Z,30.37
2018-12-26T23:15:57.242Z,14.50
2018-12-26T23:18:59.801Z,26.47
2018-12-26T23:22:02.512Z,18.73
2018-12-26T23:25:05.338Z,28.63
2018-12-26T23:28:08.086Z,22.67
2018-12-26T23:31:10.739Z,28.00
2018-12-26T23:34:16.407Z,10.50
2018-12-26T23:37:18.989Z,26.90
2018-12-26T23:40:21.766Z,29.87
2018-12-26T23:43:24.295Z,24.00
2018-12-26T23:46:26.980Z,25.20
2018-12-26T23:49:29.674Z,26.03
2018-12-26T23:52:33.301Z,17.10
2018-12-26T23:55:36.003Z,23.43
2018-12-26T23:58:38.810Z,23.07
